Time;durP1;ratioP1;P1;durP2;ratioP2;P2;SDS_P1;SDS_P2;PMS_P1;PMS_P2;Temp;Humidity;BMP_temperature;BMP_pressure;BME280_temperature;BME280_humidity;BME280_pressure;Samples;Min_cycle;Max_cycle;Signal;HPM_P1;HPM_P2
2022/08/09 00:00:30;;;;;;;11.98;5.72;;;;;;;25.58;58.22;100410.25;2101758;28;20040;-76
2022/08/09 00:01:52;;;;;;;10.50;4.93;;;;;;;25.60;58.41;100416.47;2101489;28;20052;-76
2022/08/09 00:03:14;;;;;;;12.25;4.97;;;;;;;25.60;58.23;100413.75;2100338;28;20044;-77
2022/08/09 00:04:37;;;;;;;9.07;5.40;;;;;;;25.63;58.20;100421.69;2100296;28;20040;-76
2022/08/09 00:05:58;;;;;;;9.13;4.80;;;;;;;25.64;58.36;100423.44;2101856;28;20473;-76
2022/08/09 00:07:21;;;;;;;11.15;5.35;;;;;;;25.66;58.18;100419.72;2104644;28;20052;-76
2022/08/09 00:08:47;;;;;;;13.65;5.05;;;;;;;25.68;58.12;100416.91;2100983;28;20048;-76
2022/08/09 00:10:11;;;;;;;13.25;4.38;;;;;;;25.70;58.32;100415.00;2109570;28;20055;-76
2022/08/09 00:11:33;;;;;;;8.05;4.78;;;;;;;25.72;58.03;100415.81;2104721;28;20068;-76
2022/08/09 00:12:56;;;;;;;11.98;5.07;;;;;;;25.72;58.28;100416.69;2098446;28;20048;-76
2022/08/09 00:14:18;;;;;;;10.15;5.15;;;;;;;25.75;57.95;100412.94;2107057;28;20074;-76
2022/08/09 00:15:40;;;;;;;11.30;4.93;;;;;;;25.75;58.04;100415.63;2096965;28;20075;-76
2022/08/09 00:17:02;;;;;;;9.60;4.88;;;;;;;25.73;58.03;100412.16;2103181;28;20035;-76
2022/08/09 00:18:24;;;;;;;10.48;4.68;;;;;;;25.72;57.97;100414.00;2102192;28;20676;-76
2022/08/09 00:19:47;;;;;;;9.40;4.65;;;;;;;25.74;58.15;100413.88;2104443;28;20040;-76
2022/08/09 00:21:09;;;;;;;8.60;4.90;;;;;;;25.75;57.93;100412.94;2086855;28;20049;-76
2022/08/09 00:22:32;;;;;;;8.00;4.72;;;;;;;25.77;57.82;100420.03;2103878;28;20059;-75
2022/08/09 00:23:54;;;;;;;9.10;4.57;;;;;;;25.79;58.00;100406.44;2104978;28;20048;-76
2022/08/09 00:25:18;;;;;;;9.02;4.65;;;;;;;25.79;57.74;100411.84;2103652;28;20040;-76
2022/08/09 00:26:40;;;;;;;11.77;4.72;;;;;;;25.79;58.02;100414.53;2102368;28;20040;-75
2022/08/09 00:28:02;;;;;;;8.43;5.25;;;;;;;25.80;57.76;100408.16;2097714;28;20107;-75
2022/08/09 00:29:25;;;;;;;7.35;4.10;;;;;;;25.82;57.96;100406.25;2100165;28;20134;-75
2022/08/09 00:30:46;;;;;;;9.85;4.75;;;;;;;25.84;57.88;100407.06;2102148;28;20569;-75
2022/08/09 00:32:08;;;;;;;8.25;4.70;;;;;;;25.84;57.94;100398.94;2095070;28;20052;-76
2022/08/09 00:33:30;;;;;;;11.07;4.50;;;;;;;25.82;57.68;100405.38;2100842;28;20577;-76
2022/08/09 00:34:53;;;;;;;7.88;4.18;;;;;;;25.75;58.02;100399.41;2103134;28;20083;-76
2022/08/09 00:36:14;;;;;;;7.38;4.28;;;;;;;25.70;57.96;100402.38;2109742;27;20059;-76
2022/08/09 00:37:37;;;;;;;11.45;4.75;;;;;;;25.67;58.10;100407.03;2099269;28;20064;-76
2022/08/09 00:38:58;;;;;;;11.77;5.07;;;;;;;25.65;58.33;100409.84;2095790;28;20477;-77
2022/08/09 00:40:25;;;;;;;9.43;4.90;;;;;;;25.65;58.83;100408.97;2100648;28;20048;-76
2022/08/09 00:41:46;;;;;;;9.95;4.32;;;;;;;25.64;58.67;100409.94;2102276;28;20052;-76
2022/08/09 00:43:09;;;;;;;14.23;4.50;;;;;;;25.62;58.91;100407.28;2102791;28;20121;-76
2022/08/09 00:44:30;;;;;;;10.02;4.60;;;;;;;25.65;58.95;100406.28;2102853;28;20248;-77
2022/08/09 00:45:52;;;;;;;11.90;4.90;;;;;;;25.68;58.95;100408.81;2111740;28;20515;-77
2022/08/09 00:47:15;;;;;;;9.75;4.40;;;;;;;25.72;58.75;100403.19;2104101;28;20051;-77
2022/08/09 00:48:37;;;;;;;15.45;5.03;;;;;;;25.77;58.61;100409.22;2101260;28;20048;-77
2022/08/09 00:50:02;;;;;;;9.02;4.90;;;;;;;25.80;58.73;100405.44;2102389;28;20063;-77
2022/08/09 00:51:25;;;;;;;8.00;5.03;;;;;;;25.80;58.69;100403.63;2102802;28;20073;-77
2022/08/09 00:52:47;;;;;;;13.93;4.97;;;;;;;25.79;58.67;100401.91;2108727;28;20448;-77
2022/08/09 00:54:09;;;;;;;12.50;4.90;;;;;;;25.77;58.62;100397.50;2099063;28;20036;-76
2022/08/09 00:55:32;;;;;;;8.55;4.50;;;;;;;25.77;59.05;100398.38;2111387;28;20141;-76
2022/08/09 00:56:55;;;;;;;8.65;4.35;;;;;;;25.75;59.22;100400.28;2105791;28;20044;-75
2022/08/09 00:58:16;;;;;;;11.15;5.13;;;;;;;25.79;59.11;100403.72;2102624;28;20147;-75
2022/08/09 00:59:40;;;;;;;13.13;5.28;;;;;;;25.79;59.14;100396.50;2094315;28;20506;-75
2022/08/09 01:01:11;;;;;;;11.30;4.70;;;;;;;25.79;59.33;100401.03;2099754;28;20063;-76
2022/08/09 01:02:35;;;;;;;8.20;4.50;;;;;;;25.78;59.34;100393.84;2094801;28;20136;-76
2022/08/09 01:04:04;;;;;;;12.50;5.90;;;;;;;25.77;59.27;100392.09;2100671;28;20504;-76
2022/08/09 01:05:33;;;;;;;8.70;4.00;;;;;;;25.75;59.15;100399.41;2102905;28;20075;-76
2022/08/09 01:07:06;;;;;;;8.85;4.43;;;;;;;25.72;59.14;100394.19;2111198;28;20068;-76
2022/08/09 01:08:40;;;;;;;11.20;4.90;;;;;;;25.68;59.66;100385.34;2111517;28;20488;-76
2022/08/09 01:10:07;;;;;;;12.40;4.80;;;;;;;25.69;59.61;100394.31;2101450;28;20051;-76
2022/08/09 01:11:42;;;;;;;11.13;4.70;;;;;;;25.72;59.42;100386.06;2093710;28;20070;-76
2022/08/09 01:13:12;;;;;;;11.85;5.10;;;;;;;25.70;59.51;100393.38;2101586;28;20067;-75
2022/08/09 01:14:41;;;;;;;10.95;4.65;;;;;;;25.67;59.38;100391.69;2091597;28;20056;-75
2022/08/09 01:16:04;;;;;;;11.07;4.68;;;;;;;25.66;59.65;100389.97;2096888;28;20074;-76
2022/08/09 01:17:33;;;;;;;10.05;4.72;;;;;;;25.66;59.76;100387.28;2097323;28;20060;-76
2022/08/09 01:19:00;;;;;;;9.15;4.70;;;;;;;25.67;59.60;100389.00;2097341;28;20086;-75
2022/08/09 01:20:30;;;;;;;6.60;4.53;;;;;;;25.67;59.81;100390.81;2103795;28;20082;-76
2022/08/09 01:22:07;;;;;;;13.02;4.82;;;;;;;25.65;59.53;100384.63;2103341;28;20055;-75
2022/08/09 01:23:45;;;;;;;8.55;4.57;;;;;;;25.65;59.60;100384.63;2098949;28;20414;-76
2022/08/09 01:25:27;;;;;;;11.10;5.28;;;;;;;25.63;59.92;100384.72;2103524;28;20079;-76
2022/08/09 01:27:05;;;;;;;8.75;5.05;;;;;;;25.61;59.79;100381.22;2105246;28;20052;-76
2022/08/09 01:28:27;;;;;;;12.48;6.00;;;;;;;25.61;59.62;100385.75;2104162;28;20135;-76
2022/08/09 01:29:55;;;;;;;10.95;5.63;;;;;;;25.62;59.62;100382.09;2102061;28;20051;-75
2022/08/09 01:31:20;;;;;;;10.73;5.03;;;;;;;25.61;59.92;100381.22;2101554;28;20067;-75
2022/08/09 01:32:46;;;;;;;7.97;4.20;;;;;;;25.60;59.73;100384.00;2093730;28;20051;-76
2022/08/09 01:34:13;;;;;;;9.88;5.00;;;;;;;25.56;60.06;100385.97;2105435;28;20127;-76
2022/08/09 01:35:41;;;;;;;10.55;4.95;;;;;;;25.56;60.06;100387.78;2110465;28;20047;-75
2022/08/09 01:37:05;;;;;;;10.02;4.93;;;;;;;25.53;59.80;100377.16;2105313;28;20539;-76
2022/08/09 01:38:31;;;;;;;9.75;4.72;;;;;;;25.53;59.95;100383.44;2102413;28;20166;-76
2022/08/09 01:39:56;;;;;;;8.75;5.18;;;;;;;25.51;59.85;100384.44;2102054;28;20139;-76
2022/08/09 01:41:22;;;;;;;11.90;5.85;;;;;;;25.38;60.42;100386.91;2094736;28;20147;-76
2022/08/09 01:42:46;;;;;;;13.20;4.93;;;;;;;25.32;60.33;100381.81;2101295;28;20519;-76
2022/08/09 01:44:10;;;;;;;11.43;5.50;;;;;;;25.26;60.66;100376.75;2102417;28;20055;-75
2022/08/09 01:45:32;;;;;;;10.00;5.10;;;;;;;25.24;60.72;100374.09;2093634;28;20040;-75
2022/08/09 01:46:55;;;;;;;10.07;5.18;;;;;;;25.26;60.93;100376.75;2099776;28;20071;-76
2022/08/09 01:48:19;;;;;;;11.07;5.00;;;;;;;25.26;60.74;100372.22;2110935;28;20115;-76
2022/08/09 01:49:46;;;;;;;8.75;5.18;;;;;;;25.19;60.98;100368.06;2101739;28;20139;-76
2022/08/09 01:51:08;;;;;;;8.32;4.80;;;;;;;25.17;61.10;100364.56;2094910;28;20424;-75
2022/08/09 01:52:33;;;;;;;9.25;4.95;;;;;;;25.19;61.11;100370.78;2101825;28;20067;-76
2022/08/09 01:53:57;;;;;;;11.43;4.75;;;;;;;25.22;60.91;100367.03;2102499;28;20182;-75
2022/08/09 01:55:23;;;;;;;10.63;4.90;;;;;;;25.25;61.01;100366.88;2102917;28;20147;-75
2022/08/09 01:56:47;;;;;;;9.00;4.45;;;;;;;25.28;61.08;100370.28;2103112;28;20051;-75
2022/08/09 01:58:12;;;;;;;11.45;4.90;;;;;;;25.31;61.06;100370.13;2092055;28;20557;-74
2022/08/09 01:59:38;;;;;;;12.02;5.05;;;;;;;25.32;61.11;100377.31;2101417;28;20065;-75
2022/08/09 02:01:02;;;;;;;12.05;5.05;;;;;;;25.33;60.81;100375.47;2101737;28;20404;-75
2022/08/09 02:02:26;;;;;;;12.90;4.20;;;;;;;25.34;61.14;100367.25;2093518;28;20440;-75
2022/08/09 02:03:50;;;;;;;10.63;4.63;;;;;;;25.37;60.94;100375.22;2100438;28;20059;-75
2022/08/09 02:05:14;;;;;;;9.05;4.85;;;;;;;25.40;60.81;100366.94;2102491;28;20044;-75
2022/08/09 02:08:21;;;;;;;9.82;4.25;;;;;;;25.43;61.04;100371.31;2104058;28;20048;-75
2022/08/09 02:09:49;;;;;;;12.52;4.68;;;;;;;25.46;61.00;100378.41;2101993;28;20641;-75
2022/08/09 02:11:13;;;;;;;8.73;4.57;;;;;;;25.43;60.73;100382.13;2102230;28;20074;-75
2022/08/09 02:12:37;;;;;;;11.88;4.80;;;;;;;25.31;61.15;100375.53;2102063;28;20059;-75
2022/08/09 02:14:02;;;;;;;9.70;4.50;;;;;;;25.28;61.14;100375.69;2105874;28;20082;-75
2022/08/09 02:15:27;;;;;;;10.00;4.28;;;;;;;25.33;61.34;100378.19;2098606;28;20044;-75
2022/08/09 02:16:49;;;;;;;12.63;4.30;;;;;;;25.38;61.24;100378.81;2102680;28;20051;-75
2022/08/09 02:18:12;;;;;;;12.07;5.72;;;;;;;25.40;61.31;100377.75;2102430;28;20056;-75
2022/08/09 02:19:33;;;;;;;9.25;5.00;;;;;;;25.41;60.98;100373.22;2102228;28;20040;-75
2022/08/09 02:20:59;;;;;;;10.18;4.93;;;;;;;25.41;61.32;100376.81;2102361;28;20085;-75
2022/08/09 02:22:42;;;;;;;10.27;5.47;;;;;;;25.38;61.19;100376.09;2102690;28;20471;-74
2022/08/09 02:24:07;;;;;;;10.10;4.78;;;;;;;25.35;61.44;100381.66;2102808;28;20583;-74
2022/08/09 02:25:34;;;;;;;8.85;4.70;;;;;;;25.36;61.20;100378.88;2102357;28;20075;-75
2022/08/09 02:27:00;;;;;;;12.88;4.75;;;;;;;25.37;61.18;100374.34;2094604;28;20105;-74
2022/08/09 02:28:27;;;;;;;7.95;4.20;;;;;;;25.38;61.42;100376.09;2099125;28;20377;-75
2022/08/09 02:29:53;;;;;;;9.43;4.47;;;;;;;25.38;61.49;100371.56;2102615;28;20551;-76
2022/08/09 02:31:21;;;;;;;11.07;4.60;;;;;;;25.37;61.24;100372.53;2096496;28;20058;-75
2022/08/09 02:32:46;;;;;;;10.15;4.55;;;;;;;25.36;61.47;100380.69;2096753;28;20044;-76
2022/08/09 02:34:11;;;;;;;10.32;4.30;;;;;;;25.39;61.69;100383.25;2100126;28;20540;-76
2022/08/09 02:35:36;;;;;;;9.88;4.20;;;;;;;25.42;61.70;100380.38;2102091;28;20520;-75
2022/08/09 02:37:00;;;;;;;8.48;4.20;;;;;;;25.40;61.42;100383.16;2094324;28;20109;-76
2022/08/09 02:38:29;;;;;;;7.68;4.22;;;;;;;25.40;61.55;100380.47;2104836;28;20044;-75
2022/08/09 02:39:56;;;;;;;10.30;4.28;;;;;;;25.42;61.37;100385.78;2102990;28;20092;-76
2022/08/09 02:41:25;;;;;;;10.07;4.15;;;;;;;25.46;61.56;100383.81;2102435;28;20085;-76
2022/08/09 02:42:50;;;;;;;8.93;4.75;;;;;;;25.49;61.21;100384.53;2102546;28;20036;-76
2022/08/09 02:44:20;;;;;;;10.85;4.55;;;;;;;25.50;61.14;100383.56;2108833;28;20055;-76
2022/08/09 02:45:44;;;;;;;8.70;4.22;;;;;;;25.52;61.15;100387.09;2104921;28;20051;-76
2022/08/09 02:47:11;;;;;;;10.93;4.07;;;;;;;25.53;61.29;100383.44;2102555;28;20643;-76
2022/08/09 02:48:36;;;;;;;10.95;4.05;;;;;;;25.51;61.24;100379.91;2101500;28;20471;-75
2022/08/09 02:50:02;;;;;;;9.27;3.95;;;;;;;25.51;61.03;100382.63;2102656;28;20492;-76
2022/08/09 02:51:26;;;;;;;7.63;4.10;;;;;;;25.52;61.00;100378.09;2103094;28;20063;-76
2022/08/09 02:52:54;;;;;;;7.70;3.90;;;;;;;25.51;60.94;100379.03;2110846;28;20048;-75
2022/08/09 02:54:16;;;;;;;11.68;4.28;;;;;;;25.49;61.02;100380.94;2109596;28;20062;-75
2022/08/09 02:55:44;;;;;;;10.68;4.78;;;;;;;25.49;61.27;100386.34;2104020;28;20048;-75
2022/08/09 02:57:09;;;;;;;8.98;4.18;;;;;;;25.48;61.42;100377.34;2111031;28;20461;-75
2022/08/09 02:58:33;;;;;;;9.05;4.40;;;;;;;25.50;61.34;100386.28;2104047;28;20539;-75
2022/08/09 02:59:57;;;;;;;8.35;3.85;;;;;;;25.48;61.33;100382.75;2102535;28;20151;-76
2022/08/09 03:01:22;;;;;;;10.80;4.97;;;;;;;25.44;61.34;100383.91;2109466;28;20039;-76
2022/08/09 03:02:48;;;;;;;13.18;4.40;;;;;;;25.42;61.22;100378.56;2104562;28;20724;-75
2022/08/09 03:04:13;;;;;;;11.98;5.20;;;;;;;25.42;61.24;100383.97;2099315;28;20071;-76
2022/08/09 03:05:35;;;;;;;10.68;4.20;;;;;;;25.39;61.39;100384.13;2112997;27;20065;-75
2022/08/09 03:06:59;;;;;;;7.57;4.40;;;;;;;25.35;61.10;100379.81;2119279;28;20416;-76
2022/08/09 03:08:23;;;;;;;10.32;4.20;;;;;;;25.28;61.49;100385.63;2107685;28;20064;-76
2022/08/09 03:09:49;;;;;;;12.40;4.70;;;;;;;25.26;61.65;100380.31;2096289;28;20136;-75
2022/08/09 03:11:13;;;;;;;9.63;4.47;;;;;;;25.28;61.38;100385.63;2103919;28;20182;-76
2022/08/09 03:12:39;;;;;;;11.52;4.43;;;;;;;25.31;61.58;100390.88;2104639;28;20129;-75
2022/08/09 03:14:01;;;;;;;10.25;4.03;;;;;;;25.32;61.58;100381.81;2101528;28;20082;-75
2022/08/09 03:15:25;;;;;;;12.57;4.65;;;;;;;25.33;61.30;100391.69;2102246;28;20438;-76
2022/08/09 03:16:48;;;;;;;9.95;4.75;;;;;;;25.32;61.24;100389.94;2093742;28;20144;-76
2022/08/09 03:18:11;;;;;;;12.10;4.78;;;;;;;25.31;61.63;100389.06;2091719;28;20464;-75
2022/08/09 03:19:35;;;;;;;8.90;4.03;;;;;;;25.31;61.49;100393.59;2107994;28;20047;-76
2022/08/09 03:21:00;;;;;;;7.60;4.65;;;;;;;25.31;61.43;100389.06;2102422;28;20167;-75
2022/08/09 03:22:23;;;;;;;11.90;5.05;;;;;;;25.31;61.40;100382.78;2096326;28;20044;-75
2022/08/09 03:23:46;;;;;;;10.75;4.93;;;;;;;25.28;61.32;100382.91;2105637;28;20096;-75
2022/08/09 03:25:08;;;;;;;9.75;5.28;;;;;;;25.23;61.67;100385.88;2103436;28;20044;-75
2022/08/09 03:26:33;;;;;;;14.60;5.13;;;;;;;25.20;61.72;100388.75;2095699;28;20121;-75
2022/08/09 03:27:57;;;;;;;12.35;4.97;;;;;;;25.18;62.01;100393.34;2109291;28;20040;-74
2022/08/09 03:29:19;;;;;;;9.18;4.55;;;;;;;25.17;61.85;100390.72;2104624;28;20040;-74
2022/08/09 03:30:43;;;;;;;9.07;4.68;;;;;;;25.20;61.81;100395.97;2109693;28;20048;-75
2022/08/09 03:32:07;;;;;;;12.27;3.85;;;;;;;25.20;61.95;100396.84;2104409;28;20055;-75
2022/08/09 03:33:31;;;;;;;9.27;4.10;;;;;;;25.21;61.73;100401.28;2104793;28;20048;-74
2022/08/09 03:34:54;;;;;;;10.95;4.93;;;;;;;25.15;61.92;100398.88;2110772;28;20518;-74
2022/08/09 03:36:16;;;;;;;9.93;4.32;;;;;;;25.15;62.13;100396.19;2102311;28;20044;-75
2022/08/09 03:37:38;;;;;;;10.43;4.10;;;;;;;25.17;62.21;100405.09;2109409;28;20058;-76
2022/08/09 03:39:01;;;;;;;13.02;4.30;;;;;;;25.14;61.88;100394.41;2104504;28;20139;-75
2022/08/09 03:40:23;;;;;;;10.20;4.53;;;;;;;25.07;62.37;100401.13;2103832;28;20040;-76
2022/08/09 03:41:45;;;;;;;11.27;4.20;;;;;;;25.07;62.46;100398.41;2102090;28;20048;-76
2022/08/09 03:43:07;;;;;;;10.10;4.82;;;;;;;25.10;62.15;100395.53;2098559;28;20053;-76
2022/08/09 03:44:29;;;;;;;8.77;4.35;;;;;;;25.11;62.12;100401.81;2110357;28;20552;-76
2022/08/09 03:45:51;;;;;;;8.00;4.30;;;;;;;25.12;62.13;100408.97;2101872;28;20097;-76
2022/08/09 03:47:15;;;;;;;8.50;4.30;;;;;;;25.16;62.19;100407.88;2102028;28;20048;-76
2022/08/09 03:48:37;;;;;;;11.18;4.43;;;;;;;25.19;61.99;100400.50;2102822;28;20043;-76
2022/08/09 03:50:03;;;;;;;10.98;4.40;;;;;;;25.27;62.24;100409.06;2103772;28;20515;-76
2022/08/09 03:51:26;;;;;;;8.05;3.42;;;;;;;25.35;61.84;100406.84;2103086;28;20526;-76
2022/08/09 03:52:49;;;;;;;11.20;4.57;;;;;;;25.45;61.74;100401.00;2096907;28;20439;-76
2022/08/09 03:54:12;;;;;;;8.90;3.95;;;;;;;25.53;61.57;100405.06;2100254;28;20048;-75
2022/08/09 03:55:36;;;;;;;9.65;4.00;;;;;;;25.58;61.32;100399.44;2102015;28;20117;-75
2022/08/09 03:57:00;;;;;;;9.25;4.28;;;;;;;25.63;61.12;100411.75;2103154;28;20052;-76
2022/08/09 03:58:22;;;;;;;11.27;5.05;;;;;;;25.67;61.35;100409.75;2094651;28;20645;-76
2022/08/09 03:59:45;;;;;;;11.40;4.35;;;;;;;25.71;61.06;100408.66;2098776;28;20040;-76
2022/08/09 04:01:07;;;;;;;9.57;3.95;;;;;;;25.79;61.06;100414.53;2100557;28;20085;-77
2022/08/09 04:02:32;;;;;;;8.75;4.40;;;;;;;25.86;60.87;100415.97;2102520;28;20530;-76
2022/08/09 04:03:55;;;;;;;7.15;4.20;;;;;;;25.92;60.91;100409.34;2102614;28;20134;-76
2022/08/09 04:05:17;;;;;;;7.15;3.70;;;;;;;26.01;60.67;100414.25;2111058;28;20523;-75
2022/08/09 04:06:39;;;;;;;9.50;3.50;;;;;;;26.09;60.83;100407.47;2105001;28;20036;-76
2022/08/09 04:08:01;;;;;;;9.57;3.58;;;;;;;26.19;60.32;100403.31;2097726;28;20195;-77
2022/08/09 04:09:23;;;;;;;9.30;4.00;;;;;;;26.27;60.21;100408.34;2102639;28;20554;-76
2022/08/09 04:10:45;;;;;;;10.48;4.30;;;;;;;26.38;59.90;100403.22;2111928;28;20043;-76
2022/08/09 04:12:25;;;;;;;8.40;3.47;;;;;;;26.45;59.71;100406.47;2120061;27;20138;-76
2022/08/09 04:13:46;;;;;;;5.75;3.20;;;;;;;26.53;59.60;100406.88;2108291;28;20241;-76
2022/08/09 04:15:09;;;;;;;11.60;3.53;;;;;;;26.65;59.45;100405.34;2103294;28;20090;-76
2022/08/09 04:16:32;;;;;;;7.93;3.65;;;;;;;26.79;59.17;100406.28;2102180;28;20409;-76
2022/08/09 04:17:55;;;;;;;7.97;2.90;;;;;;;26.93;58.69;100406.41;2103012;28;20453;-77
2022/08/09 04:19:20;;;;;;;9.23;3.17;;;;;;;27.05;58.51;100406.66;2093894;28;20044;-76
2022/08/09 04:20:42;;;;;;;8.18;3.70;;;;;;;27.11;58.25;100411.75;2103061;28;20047;-76
2022/08/09 04:22:04;;;;;;;8.98;3.83;;;;;;;27.12;58.27;100411.63;2110324;28;20085;-76
2022/08/09 04:23:26;;;;;;;10.57;4.40;;;;;;;27.19;58.28;100415.72;2104306;28;20060;-76
2022/08/09 04:24:48;;;;;;;6.47;3.03;;;;;;;27.34;58.16;100408.53;2102697;28;20067;-76
2022/08/09 04:26:10;;;;;;;9.55;3.35;;;;;;;27.49;57.47;100410.34;2103008;28;20040;-76
2022/08/09 04:27:32;;;;;;;8.30;2.83;;;;;;;27.61;57.06;100415.06;2103522;28;20040;-76
2022/08/09 04:28:54;;;;;;;12.13;3.38;;;;;;;27.71;56.93;100418.06;2101179;28;20046;-76
2022/08/09 04:30:18;;;;;;;10.95;3.20;;;;;;;27.84;56.44;100413.66;2103260;28;20101;-76
2022/08/09 04:31:41;;;;;;;7.32;3.15;;;;;;;27.92;56.31;100418.59;2103274;28;20516;-77
2022/08/09 04:33:04;;;;;;;9.68;3.05;;;;;;;28.00;56.02;100419.88;2105021;28;20101;-77
2022/08/09 04:34:26;;;;;;;9.32;4.53;;;;;;;28.06;55.73;100424.06;2111858;28;20074;-76
2022/08/09 04:35:48;;;;;;;10.73;3.00;;;;;;;28.13;55.57;100420.00;2105636;28;20055;-76
2022/08/09 04:37:10;;;;;;;11.35;2.92;;;;;;;28.21;55.33;100420.44;2103521;28;20052;-76
2022/08/09 04:38:35;;;;;;;8.65;2.63;;;;;;;28.28;55.27;100429.94;2102715;28;20157;-76
2022/08/09 04:39:57;;;;;;;6.78;2.88;;;;;;;28.37;55.15;100425.75;2102416;28;20063;-76
2022/08/09 04:41:19;;;;;;;8.45;2.63;;;;;;;28.41;55.10;100430.91;2103043;28;20146;-76
2022/08/09 04:42:42;;;;;;;8.10;3.10;;;;;;;28.40;54.88;100422.84;2101789;28;20132;-77
2022/08/09 04:44:10;;;;;;;9.45;2.90;;;;;;;28.30;55.01;100436.13;2111355;28;20055;-77
2022/08/09 04:45:33;;;;;;;10.02;3.35;;;;;;;28.17;55.21;100427.00;2104696;28;20096;-77
2022/08/09 04:46:55;;;;;;;9.90;3.97;;;;;;;28.11;55.46;100436.38;2103328;28;20230;-76
2022/08/09 04:48:18;;;;;;;11.23;2.70;;;;;;;28.08;55.54;100435.69;2102880;28;20078;-76
2022/08/09 04:49:40;;;;;;;7.40;2.72;;;;;;;28.07;55.62;100437.53;2101862;28;20055;-76
2022/08/09 04:51:02;;;;;;;5.03;2.63;;;;;;;28.11;55.51;100444.50;2102212;28;20036;-76
2022/08/09 04:52:27;;;;;;;8.40;2.97;;;;;;;28.20;55.47;100436.81;2097364;28;20151;-77
2022/08/09 04:53:49;;;;;;;8.80;2.80;;;;;;;28.39;55.21;100440.97;2101118;28;20097;-76
2022/08/09 04:55:12;;;;;;;9.25;3.10;;;;;;;28.58;54.64;100437.09;2104995;28;20063;-76
2022/08/09 04:56:34;;;;;;;6.70;3.45;;;;;;;28.65;54.52;100433.00;2102877;28;20178;-76
2022/08/09 04:57:56;;;;;;;9.43;2.38;;;;;;;28.77;54.14;100437.69;2101329;28;20040;-76
2022/08/09 04:59:17;;;;;;;5.88;2.30;;;;;;;28.88;53.69;100440.59;2108022;28;20071;-76
2022/08/09 05:00:40;;;;;;;8.88;2.17;;;;;;;28.92;53.31;100445.72;2103387;28;20058;-76
2022/08/09 05:02:01;;;;;;;6.30;2.45;;;;;;;28.89;53.24;100445.91;2102994;28;20047;-76
2022/08/09 05:03:25;;;;;;;7.60;2.45;;;;;;;28.88;53.15;100437.88;2101871;28;20101;-76
2022/08/09 05:04:47;;;;;;;7.05;2.50;;;;;;;28.96;53.13;100427.34;2097343;28;20051;-77
2022/08/09 05:06:09;;;;;;;5.88;2.33;;;;;;;29.01;53.07;100437.94;2101679;28;20039;-77
2022/08/09 05:07:32;;;;;;;4.20;2.15;;;;;;;29.21;52.75;100445.66;2101361;28;20115;-76
2022/08/09 05:08:54;;;;;;;6.53;3.00;;;;;;;29.56;52.25;100441.44;2102145;28;20062;-76
2022/08/09 05:10:16;;;;;;;5.38;2.58;;;;;;;29.91;51.21;100441.72;2107673;28;20047;-77
2022/08/09 05:11:38;;;;;;;7.18;2.28;;;;;;;30.27;50.66;100446.44;2101997;28;20071;-75
2022/08/09 05:13:01;;;;;;;12.45;2.70;;;;;;;30.66;50.03;100450.91;2110992;28;20067;-76
2022/08/09 05:14:23;;;;;;;7.57;2.33;;;;;;;31.02;49.26;100444.63;2105778;28;20047;-76
2022/08/09 05:15:44;;;;;;;9.02;2.80;;;;;;;31.37;48.32;100452.91;2106588;28;20040;-77
2022/08/09 05:17:07;;;;;;;6.10;2.05;;;;;;;31.43;48.34;100451.56;2096315;28;20135;-77
2022/08/09 05:18:32;;;;;;;8.18;2.65;;;;;;;31.27;48.08;100449.13;2096686;28;20453;-77
2022/08/09 05:19:54;;;;;;;8.07;2.58;;;;;;;31.14;48.51;100446.47;2094930;28;20064;-77
2022/08/09 05:21:17;;;;;;;4.82;2.35;;;;;;;31.01;48.39;100455.63;2110294;28;20077;-76
2022/08/09 05:22:39;;;;;;;4.35;2.38;;;;;;;30.79;48.52;100449.03;2104704;28;20052;-76
2022/08/09 05:24:02;;;;;;;6.72;2.60;;;;;;;30.60;48.83;100448.63;2101450;28;20050;-76
2022/08/09 05:25:24;;;;;;;5.60;2.42;;;;;;;30.44;49.38;100447.97;2098899;28;20048;-76
2022/08/09 05:26:49;;;;;;;7.53;2.97;;;;;;;30.34;49.20;100452.31;2094391;28;20390;-77
2022/08/09 05:28:15;;;;;;;6.60;2.58;;;;;;;30.23;49.58;100452.22;2098525;28;20495;-75
2022/08/09 05:29:38;;;;;;;7.38;2.30;;;;;;;30.32;49.64;100451.59;2102644;28;20032;-76
2022/08/09 05:31:03;;;;;;;6.25;2.10;;;;;;;30.89;48.38;100455.56;2097197;28;20052;-76
2022/08/09 05:32:27;;;;;;;12.38;2.80;;;;;;;31.56;47.44;100457.84;2101422;28;20043;-77
2022/08/09 05:33:51;;;;;;;6.43;2.53;;;;;;;32.15;46.07;100461.44;2101918;28;20127;-76
2022/08/09 05:35:13;;;;;;;7.38;2.45;;;;;;;32.60;45.30;100461.50;2102751;28;20043;-76
2022/08/09 05:36:36;;;;;;;6.82;2.70;;;;;;;32.80;44.43;100461.66;2102347;28;20093;-76
2022/08/09 05:37:58;;;;;;;6.03;2.40;;;;;;;32.89;44.27;100465.47;2102378;28;20144;-77
2022/08/09 05:39:20;;;;;;;4.18;2.17;;;;;;;32.96;43.64;100454.91;2096878;28;20396;-76
2022/08/09 05:40:43;;;;;;;7.38;2.30;;;;;;;32.95;43.28;100451.28;2104292;28;20131;-76
2022/08/09 05:42:05;;;;;;;4.30;2.05;;;;;;;32.66;43.66;100455.53;2101743;28;20060;-76
2022/08/09 05:43:28;;;;;;;5.00;2.13;;;;;;;32.52;43.67;100448.44;2094269;28;20105;-76
2022/08/09 05:44:51;;;;;;;5.50;2.63;;;;;;;32.26;44.03;100461.47;2100749;28;20052;-76
2022/08/09 05:46:14;;;;;;;10.23;2.50;;;;;;;31.90;44.30;100458.88;2100190;28;20174;-76
2022/08/09 05:47:35;;;;;;;4.90;2.67;;;;;;;31.61;45.14;100456.53;2111165;28;20050;-76
2022/08/09 05:48:59;;;;;;;4.53;2.28;;;;;;;31.41;45.72;100454.41;2104375;28;20040;-78
2022/08/09 05:50:22;;;;;;;5.25;2.10;;;;;;;31.18;45.80;100460.72;2102325;28;20136;-77
2022/08/09 05:51:45;;;;;;;7.47;2.25;;;;;;;30.92;45.80;100448.16;2102845;28;20040;-76
2022/08/09 05:53:07;;;;;;;4.55;2.58;;;;;;;30.72;46.32;100453.19;2103880;28;20085;-76
2022/08/09 05:54:30;;;;;;;7.32;2.10;;;;;;;30.54;46.65;100443.63;2111093;28;20071;-76
2022/08/09 05:55:52;;;;;;;5.97;2.30;;;;;;;30.36;46.96;100461.28;2105182;28;20044;-76
2022/08/09 05:57:15;;;;;;;5.32;2.05;;;;;;;30.28;47.26;100448.19;2093361;28;20132;-76
2022/08/09 05:58:37;;;;;;;7.90;2.33;;;;;;;30.22;47.49;100450.47;2105386;28;20090;-76
2022/08/09 05:59:58;;;;;;;9.65;2.63;;;;;;;30.16;47.44;100459.09;2102317;28;20716;-76
2022/08/09 06:01:21;;;;;;;6.78;2.40;;;;;;;30.07;47.82;100456.03;2101304;28;20044;-76
2022/08/09 06:02:43;;;;;;;5.55;2.42;;;;;;;30.01;48.31;100455.59;2101612;28;20467;-77
2022/08/09 06:04:07;;;;;;;5.25;2.78;;;;;;;29.99;48.26;100458.44;2096083;28;20121;-77
2022/08/09 06:05:32;;;;;;;8.25;2.75;;;;;;;30.03;48.68;100461.81;2105081;28;20067;-76
2022/08/09 06:06:55;;;;;;;8.52;2.55;;;;;;;30.36;48.52;100458.56;2102253;28;20170;-77
2022/08/09 06:08:18;;;;;;;8.55;2.22;;;;;;;30.91;47.72;100463.63;2100604;28;20134;-76
2022/08/09 06:09:40;;;;;;;12.25;2.95;;;;;;;31.17;47.41;100468.06;2102044;28;20055;-76
2022/08/09 06:11:03;;;;;;;8.00;2.22;;;;;;;31.53;47.04;100478.03;2103995;28;20036;-77
2022/08/09 06:12:24;;;;;;;13.02;2.90;;;;;;;31.64;46.54;100478.13;2103998;28;20408;-76
2022/08/09 06:13:47;;;;;;;9.30;2.50;;;;;;;31.55;46.75;100478.81;2109487;28;20043;-76
2022/08/09 06:15:09;;;;;;;10.60;2.33;;;;;;;31.40;46.37;100482.69;2102466;28;20208;-76
2022/08/09 06:16:32;;;;;;;9.27;2.40;;;;;;;31.32;46.78;100476.06;2101534;28;20151;-76
2022/08/09 06:17:55;;;;;;;6.20;2.53;;;;;;;31.54;46.24;100482.53;2102147;28;20538;-76
2022/08/09 06:19:19;;;;;;;8.30;3.00;;;;;;;31.71;46.29;100485.84;2095541;28;20055;-77
2022/08/09 06:20:41;;;;;;;7.07;2.30;;;;;;;32.15;45.58;100485.16;2089586;28;20044;-77
2022/08/09 06:22:04;;;;;;;7.10;2.22;;;;;;;32.75;44.67;100482.16;2098356;28;20121;-77
2022/08/09 06:23:30;;;;;;;8.55;2.20;;;;;;;33.27;43.54;100477.91;2101086;28;20445;-78
2022/08/09 06:24:52;;;;;;;4.93;2.70;;;;;;;33.65;42.95;100477.41;2102394;28;20492;-79
2022/08/09 06:26:14;;;;;;;6.38;2.53;;;;;;;33.92;42.42;100473.19;2106076;28;20182;-76
2022/08/09 06:27:37;;;;;;;9.45;2.92;;;;;;;34.15;41.85;100473.03;2104172;28;20075;-76
2022/08/09 06:29:00;;;;;;;5.65;2.05;;;;;;;34.44;41.60;100473.25;2109686;28;20143;-77
2022/08/09 06:30:22;;;;;;;7.20;2.40;;;;;;;34.70;41.02;100469.06;2109451;28;20063;-75